Time;durP1;ratioP1;P1;durP2;ratioP2;P2;SDS_P1;SDS_P2;PMS_P1;PMS_P2;Temp;Humidity;BMP_temperature;BMP_pressure;BME280_temperature;BME280_humidity;BME280_pressure;Samples;Min_cycle;Max_cycle;Signal;HPM_P1;HPM_P2
2023/06/27 00:01:42;;;;;;;12.50;3.33;;;18.10;99.90;;;;;;5035295;28;20618;-58
2023/06/27 00:04:08;;;;;;;13.03;3.20;;;18.20;99.90;;;;;;5035486;28;20202;-57
2023/06/27 00:06:37;;;;;;;6.73;2.17;;;18.10;99.90;;;;;;5034634;28;20177;-55
2023/06/27 00:09:05;;;;;;;11.30;2.97;;;18.00;99.90;;;;;;5034663;28;20603;-58
2023/06/27 00:11:31;;;;;;;9.87;3.37;;;17.90;99.90;;;;;;5034024;28;20265;-59
2023/06/27 00:13:58;;;;;;;11.33;3.27;;;17.90;99.90;;;;;;5032792;28;20273;-56
2023/06/27 00:16:24;;;;;;;9.17;2.40;;;17.90;99.90;;;;;;5032717;28;20209;-58
2023/06/27 00:18:50;;;;;;;11.80;2.83;;;17.90;99.90;;;;;;5032188;28;20332;-58
2023/06/27 00:21:16;;;;;;;20.43;2.93;;;17.80;99.90;;;;;;5033358;28;20588;-64
2023/06/27 00:23:43;;;;;;;9.90;2.23;;;17.70;99.90;;;;;;5035985;28;20208;-58
2023/06/27 00:26:09;;;;;;;9.07;3.20;;;17.60;99.90;;;;;;5038035;28;20267;-56
2023/06/27 00:28:35;;;;;;;11.53;2.50;;;17.70;99.90;;;;;;5038458;28;20461;-55
2023/06/27 00:31:01;;;;;;;9.60;2.43;;;17.80;99.90;;;;;;5041799;28;20244;-58
2023/06/27 00:33:27;;;;;;;9.37;2.00;;;17.80;99.90;;;;;;5073400;28;20166;-58
2023/06/27 00:35:53;;;;;;;15.03;3.13;;;17.80;99.90;;;;;;5040903;28;20365;-60
2023/06/27 00:38:18;;;;;;;11.47;2.47;;;17.70;99.90;;;;;;5075473;28;20166;-56
2023/06/27 00:40:44;;;;;;;12.20;2.80;;;17.70;99.90;;;;;;5041002;28;20363;-56
2023/06/27 00:43:10;;;;;;;9.93;2.83;;;17.70;99.90;;;;;;5040500;28;20228;-59
2023/06/27 00:45:35;;;;;;;6.67;2.10;;;17.70;99.90;;;;;;5040549;28;20518;-58
2023/06/27 00:48:02;;;;;;;14.60;3.57;;;17.70;99.90;;;;;;5039441;28;20177;-56
2023/06/27 00:50:30;;;;;;;8.30;2.20;;;17.70;99.90;;;;;;5039583;28;20177;-58
2023/06/27 00:52:57;;;;;;;7.07;2.57;;;17.60;99.90;;;;;;5037568;28;20435;-58
2023/06/27 00:55:23;;;;;;;9.10;2.07;;;17.60;99.90;;;;;;5055914;28;20265;-59
2023/06/27 00:57:49;;;;;;;11.97;3.27;;;17.50;99.90;;;;;;5037427;28;20527;-59
2023/06/27 01:00:16;;;;;;;6.77;2.30;;;17.60;99.90;;;;;;5054151;28;20625;-59
2023/06/27 01:02:43;;;;;;;5.63;2.53;;;17.50;99.90;;;;;;5069025;28;20406;-57
2023/06/27 01:05:09;;;;;;;9.67;2.53;;;17.50;99.90;;;;;;5036104;28;20583;-57
2023/06/27 01:07:42;;;;;;;7.97;2.80;;;17.40;99.90;;;;;;5069722;28;20237;-58
2023/06/27 01:10:28;;;;;;;8.53;3.17;;;17.40;99.90;;;;;;5036909;28;20218;-58
2023/06/27 01:12:59;;;;;;;8.47;2.30;;;17.50;99.90;;;;;;5036236;28;20442;-58
2023/06/27 01:15:26;;;;;;;8.60;2.50;;;17.40;99.90;;;;;;5053014;28;20209;-55
2023/06/27 01:17:52;;;;;;;11.17;2.20;;;17.40;99.90;;;;;;5036372;28;20401;-57
2023/06/27 01:20:19;;;;;;;8.53;3.10;;;17.40;99.90;;;;;;5036757;28;20185;-59
2023/06/27 01:23:05;;;;;;;5.93;1.77;;;17.40;99.90;;;;;;5036143;28;20471;-58
2023/06/27 01:25:31;;;;;;;7.73;2.07;;;17.40;99.90;;;;;;5070131;28;20237;-60
2023/06/27 01:27:57;;;;;;;7.13;2.53;;;17.30;99.90;;;;;;5069051;28;20246;-59
2023/06/27 01:30:23;;;;;;;16.93;2.67;;;17.20;99.90;;;;;;5033872;28;20537;-57
2023/06/27 01:32:58;;;;;;;14.17;2.43;;;17.20;99.90;;;;;;5035376;28;20534;-57
2023/06/27 01:35:45;;;;;;;9.80;2.10;;;17.30;99.90;;;;;;5034557;28;20604;-56
2023/06/27 01:38:17;;;;;;;5.70;2.00;;;17.20;99.90;;;;;;5035797;28;20245;-59
2023/06/27 01:40:45;;;;;;;8.87;2.80;;;17.30;99.90;;;;;;5035595;28;20212;-59
2023/06/27 01:43:13;;;;;;;6.67;2.10;;;17.30;99.90;;;;;;5035380;28;20177;-57
2023/06/27 01:45:40;;;;;;;11.93;2.67;;;17.20;99.90;;;;;;5035183;28;20185;-57
2023/06/27 01:48:07;;;;;;;13.00;2.73;;;17.20;99.90;;;;;;5035837;28;20569;-56
2023/06/27 01:50:33;;;;;;;9.97;3.10;;;17.20;99.90;;;;;;5036976;28;20186;-57
2023/06/27 01:52:58;;;;;;;5.63;2.17;;;17.20;99.90;;;;;;5037055;28;20173;-56
2023/06/27 01:55:25;;;;;;;8.03;2.50;;;17.10;99.90;;;;;;5034549;28;20215;-56
2023/06/27 01:57:51;;;;;;;7.30;2.37;;;17.10;99.90;;;;;;5034516;28;20443;-59
2023/06/27 02:00:17;;;;;;;11.13;3.57;;;17.00;99.90;;;;;;5035367;28;20169;-58
2023/06/27 02:02:43;;;;;;;12.93;2.73;;;17.00;99.90;;;;;;5035635;28;20166;-59
2023/06/27 02:05:12;;;;;;;10.37;2.73;;;16.90;99.90;;;;;;5035838;28;20592;-57
2023/06/27 02:07:38;;;;;;;8.13;2.60;;;16.90;99.90;;;;;;5036125;28;20576;-57
2023/06/27 02:10:03;;;;;;;8.73;2.60;;;16.90;99.90;;;;;;5036392;28;20174;-59
2023/06/27 02:12:29;;;;;;;9.10;2.83;;;16.90;99.90;;;;;;5037913;28;20253;-60
2023/06/27 02:14:55;;;;;;;11.93;3.00;;;16.80;99.90;;;;;;5035661;28;20232;-57
2023/06/27 02:17:21;;;;;;;6.00;2.20;;;16.90;99.90;;;;;;5035630;28;20599;-59
2023/06/27 02:19:46;;;;;;;8.50;2.83;;;16.90;99.90;;;;;;5035229;28;20185;-57
2023/06/27 02:22:12;;;;;;;12.63;3.23;;;16.90;99.90;;;;;;5034251;28;20261;-56
2023/06/27 02:24:37;;;;;;;6.17;2.83;;;17.00;99.90;;;;;;5035184;28;20173;-57
2023/06/27 02:27:04;;;;;;;6.43;2.70;;;16.90;99.90;;;;;;5035817;28;20241;-58
2023/06/27 02:29:30;;;;;;;13.60;3.27;;;16.90;99.90;;;;;;5034699;28;20305;-58
2023/06/27 02:31:56;;;;;;;9.83;2.43;;;16.70;99.90;;;;;;5035761;28;20186;-55
2023/06/27 02:34:21;;;;;;;10.87;3.07;;;16.70;99.90;;;;;;5035435;28;20181;-55
2023/06/27 02:36:47;;;;;;;5.63;2.37;;;16.60;99.90;;;;;;5035549;28;20174;-57
2023/06/27 02:39:13;;;;;;;6.87;2.60;;;16.60;99.90;;;;;;5034386;28;20174;-59
2023/06/27 02:41:39;;;;;;;10.80;2.87;;;16.60;99.90;;;;;;5033712;28;20182;-59
2023/06/27 02:44:04;;;;;;;10.70;2.97;;;16.60;99.90;;;;;;5033746;28;20272;-57
2023/06/27 02:46:30;;;;;;;7.27;2.73;;;16.70;99.90;;;;;;5033052;28;20269;-59
2023/06/27 02:48:55;;;;;;;7.50;2.63;;;16.60;99.90;;;;;;5031970;28;20521;-56
2023/06/27 02:51:23;;;;;;;10.60;3.10;;;16.60;99.90;;;;;;5031498;28;20549;-58
2023/06/27 02:53:48;;;;;;;9.20;2.47;;;16.60;99.90;;;;;;5031517;28;20284;-59
2023/06/27 02:56:14;;;;;;;8.37;2.77;;;16.60;99.90;;;;;;5032396;28;20593;-58
2023/06/27 02:58:39;;;;;;;7.23;2.17;;;16.60;99.90;;;;;;5032571;28;20162;-58
2023/06/27 03:01:06;;;;;;;6.53;2.00;;;16.50;99.90;;;;;;5033017;28;20446;-59
2023/06/27 03:03:32;;;;;;;5.37;2.07;;;16.50;99.90;;;;;;5030900;28;20188;-57
2023/06/27 03:06:02;;;;;;;7.60;2.67;;;16.60;99.90;;;;;;5032914;28;20429;-58
2023/06/27 03:08:30;;;;;;;7.40;2.30;;;16.50;99.90;;;;;;5031721;28;20189;-58
2023/06/27 03:10:56;;;;;;;8.33;2.07;;;16.50;99.90;;;;;;5032074;28;20269;-59
2023/06/27 03:13:22;;;;;;;7.23;2.53;;;16.60;99.90;;;;;;5032324;28;20201;-58
2023/06/27 03:15:47;;;;;;;6.60;2.33;;;16.60;99.90;;;;;;5032397;28;20251;-59
2023/06/27 03:18:13;;;;;;;3.60;2.00;;;16.60;99.90;;;;;;5035953;28;20182;-57
2023/06/27 03:20:38;;;;;;;4.83;1.77;;;16.50;99.90;;;;;;5040118;28;20216;-57
2023/06/27 03:23:04;;;;;;;7.03;2.10;;;16.50;99.90;;;;;;5035831;28;20173;-59
2023/06/27 03:25:29;;;;;;;8.33;2.40;;;16.50;99.90;;;;;;5033914;28;20170;-58
2023/06/27 03:27:55;;;;;;;8.80;2.30;;;16.50;99.90;;;;;;5035341;28;20340;-59
2023/06/27 03:30:21;;;;;;;6.93;2.10;;;16.60;99.90;;;;;;5035177;28;20279;-59
2023/06/27 03:32:46;;;;;;;6.20;2.27;;;16.50;99.90;;;;;;5034938;28;20192;-57
2023/06/27 03:35:11;;;;;;;8.10;3.20;;;16.50;99.90;;;;;;5035880;28;20209;-59
2023/06/27 03:37:37;;;;;;;6.37;2.63;;;16.50;99.90;;;;;;5037018;28;20162;-58
2023/06/27 03:40:04;;;;;;;8.20;2.17;;;16.50;99.90;;;;;;5037832;28;20423;-57
2023/06/27 03:42:30;;;;;;;8.43;2.00;;;16.50;99.90;;;;;;5035474;28;20577;-59
2023/06/27 03:44:56;;;;;;;7.27;1.93;;;16.50;99.90;;;;;;5035091;28;20171;-55
2023/06/27 03:47:24;;;;;;;6.87;2.17;;;16.50;99.90;;;;;;5034769;28;20245;-59
2023/06/27 03:49:49;;;;;;;7.73;1.97;;;16.50;99.90;;;;;;5035453;28;20553;-58
2023/06/27 03:52:15;;;;;;;10.43;2.57;;;16.50;99.90;;;;;;5033742;28;20174;-58
2023/06/27 03:54:40;;;;;;;6.37;1.83;;;16.50;99.90;;;;;;5033115;28;20612;-58
2023/06/27 03:57:06;;;;;;;5.57;2.10;;;16.50;99.90;;;;;;5034673;28;20195;-60
2023/06/27 03:59:32;;;;;;;7.17;2.00;;;16.50;99.90;;;;;;5033954;28;20286;-59
2023/06/27 04:01:58;;;;;;;4.70;2.03;;;16.50;99.90;;;;;;5032845;28;20546;-57
2023/06/27 04:04:24;;;;;;;5.67;2.17;;;16.50;99.90;;;;;;5034977;28;20205;-60
2023/06/27 04:06:50;;;;;;;3.30;1.80;;;16.50;99.90;;;;;;5035604;28;20182;-56
2023/06/27 04:09:17;;;;;;;4.13;1.80;;;16.40;99.90;;;;;;5016628;28;20202;-59
2023/06/27 04:11:42;;;;;;;3.63;1.90;;;16.30;99.90;;;;;;5034285;28;20178;-59
2023/06/27 04:14:08;;;;;;;6.20;2.07;;;16.40;99.90;;;;;;5032751;28;20498;-59
2023/06/27 04:16:34;;;;;;;7.00;2.17;;;16.40;99.90;;;;;;5029105;28;20201;-59
2023/06/27 04:18:59;;;;;;;6.20;2.50;;;16.30;99.90;;;;;;5026247;28;20174;-58
2023/06/27 04:21:25;;;;;;;5.80;2.10;;;16.40;99.90;;;;;;5023756;28;20243;-59
2023/06/27 04:23:51;;;;;;;10.93;3.30;;;16.40;99.90;;;;;;5025397;28;20170;-57
2023/06/27 04:26:17;;;;;;;4.03;1.83;;;16.40;99.90;;;;;;5024913;28;20352;-58
2023/06/27 04:28:43;;;;;;;6.83;2.20;;;16.40;99.90;;;;;;5025414;28;20301;-58
2023/06/27 04:31:10;;;;;;;4.80;1.80;;;16.40;99.90;;;;;;5028296;28;20534;-59
2023/06/27 04:33:42;;;;;;;6.73;2.33;;;16.50;99.90;;;;;;5030098;28;20170;-59
2023/06/27 04:36:08;;;;;;;4.17;2.23;;;16.50;99.90;;;;;;5030752;28;20331;-57
2023/06/27 04:38:37;;;;;;;5.27;2.03;;;16.40;99.90;;;;;;5031660;28;20169;-59
2023/06/27 04:41:10;;;;;;;4.30;2.17;;;16.40;99.90;;;;;;5030785;28;20166;-59
2023/06/27 04:43:39;;;;;;;3.87;2.00;;;16.40;99.90;;;;;;5030447;28;20572;-57
2023/06/27 04:46:04;;;;;;;3.87;1.67;;;16.40;99.90;;;;;;5031612;28;20594;-58
2023/06/27 04:48:30;;;;;;;4.50;1.77;;;16.40;99.90;;;;;;5034082;28;20208;-59
2023/06/27 04:50:56;;;;;;;2.73;1.80;;;16.50;99.90;;;;;;5050484;28;20545;-59
2023/06/27 04:53:22;;;;;;;4.47;1.93;;;16.50;99.90;;;;;;5033250;28;20174;-58
2023/06/27 04:55:48;;;;;;;3.40;2.00;;;16.50;99.90;;;;;;5032010;28;20200;-59
2023/06/27 04:58:14;;;;;;;3.17;1.67;;;16.50;99.90;;;;;;5028328;28;20276;-60
2023/06/27 05:00:40;;;;;;;1.83;1.40;;;16.50;99.90;;;;;;5029791;28;20169;-57
2023/06/27 05:03:06;;;;;;;5.63;1.70;;;16.50;99.90;;;;;;5027851;28;20227;-58
2023/06/27 05:05:33;;;;;;;4.53;1.90;;;16.50;99.90;;;;;;5028880;28;20509;-56
2023/06/27 05:08:01;;;;;;;3.70;2.03;;;16.50;99.90;;;;;;5026745;28;20591;-57
2023/06/27 05:10:27;;;;;;;3.17;1.70;;;16.50;99.90;;;;;;5025385;28;20410;-59
2023/06/27 05:12:53;;;;;;;7.00;2.27;;;16.50;99.90;;;;;;5027623;28;20173;-57
2023/06/27 05:15:18;;;;;;;4.27;1.67;;;16.40;99.90;;;;;;5044413;28;20205;-59
2023/06/27 05:17:51;;;;;;;4.67;2.03;;;16.30;99.90;;;;;;5045402;28;20169;-59
2023/06/27 05:20:17;;;;;;;3.47;1.67;;;16.20;99.90;;;;;;5027366;28;20332;-59
2023/06/27 05:22:42;;;;;;;3.07;1.70;;;16.10;99.90;;;;;;5028733;28;20169;-59
2023/06/27 05:25:08;;;;;;;5.07;1.70;;;16.10;99.90;;;;;;5047973;28;20171;-59
2023/06/27 05:27:34;;;;;;;4.13;1.67;;;16.10;99.90;;;;;;5029742;28;20173;-57
2023/06/27 05:29:59;;;;;;;3.63;1.63;;;16.00;99.90;;;;;;5030874;28;20221;-55
2023/06/27 05:32:25;;;;;;;3.93;1.20;;;16.00;99.90;;;;;;5032122;28;20184;-59
2023/06/27 05:34:50;;;;;;;3.73;1.50;;;16.10;99.90;;;;;;5050189;28;20197;-57
2023/06/27 05:37:16;;;;;;;4.97;1.77;;;16.10;99.90;;;;;;5031522;28;20224;-57
2023/06/27 05:39:42;;;;;;;4.53;1.83;;;16.10;99.90;;;;;;5033230;28;20416;-59
2023/06/27 05:42:08;;;;;;;3.70;1.90;;;16.00;99.90;;;;;;5034725;28;20287;-56
2023/06/27 05:44:33;;;;;;;5.07;2.03;;;16.10;99.90;;;;;;5052942;28;20208;-60
2023/06/27 05:46:59;;;;;;;4.93;2.03;;;16.10;99.90;;;;;;5032933;28;20280;-58
2023/06/27 05:49:25;;;;;;;4.97;2.10;;;16.00;99.90;;;;;;5030402;28;20513;-60
2023/06/27 05:51:50;;;;;;;4.13;2.37;;;16.10;99.90;;;;;;5030098;28;20177;-59
2023/06/27 05:54:16;;;;;;;4.30;2.10;;;16.10;99.90;;;;;;5029616;28;20239;-63
2023/06/27 05:56:42;;;;;;;5.00;2.30;;;16.00;99.90;;;;;;5028699;28;20268;-59
2023/06/27 05:59:07;;;;;;;5.20;2.30;;;15.90;99.90;;;;;;5027081;28;20219;-60
2023/06/27 06:01:35;;;;;;;6.70;2.50;;;15.90;99.90;;;;;;5025526;28;20165;-59
2023/06/27 06:04:01;;;;;;;8.53;2.70;;;15.90;99.90;;;;;;5044417;28;20612;-60
2023/06/27 06:06:27;;;;;;;7.10;2.60;;;15.90;99.90;;;;;;5026059;28;20184;-59
2023/06/27 06:08:53;;;;;;;7.10;2.40;;;15.90;99.90;;;;;;5025459;28;20656;-59
2023/06/27 06:11:18;;;;;;;6.17;2.77;;;16.00;99.90;;;;;;5043021;28;20252;-58
2023/06/27 06:13:44;;;;;;;7.10;2.80;;;16.00;99.90;;;;;;5043364;28;20162;-58
2023/06/27 06:16:09;;;;;;;5.20;1.90;;;16.10;99.90;;;;;;5027105;28;20193;-57
2023/06/27 06:18:35;;;;;;;3.50;2.00;;;16.10;99.90;;;;;;5043951;28;20274;-60
2023/06/27 06:21:00;;;;;;;6.30;2.30;;;16.10;99.90;;;;;;5042565;28;20188;-57
2023/06/27 06:23:26;;;;;;;6.00;1.83;;;16.10;99.90;;;;;;5023180;28;20161;-60
2023/06/27 06:25:51;;;;;;;1.83;1.40;;;16.20;99.90;;;;;;5020920;28;20549;-58
2023/06/27 06:28:17;;;;;;;4.47;1.73;;;16.20;99.90;;;;;;5020474;28;20238;-59
2023/06/27 06:30:43;;;;;;;8.33;2.87;;;16.20;99.90;;;;;;5052983;28;20232;-59
2023/06/27 06:33:08;;;;;;;4.60;1.87;;;16.30;99.90;;;;;;5019979;28;20437;-60
2023/06/27 06:35:34;;;;;;;4.47;2.10;;;16.20;99.90;;;;;;5022761;28;20697;-59
2023/06/27 06:38:01;;;;;;;5.40;2.27;;;16.20;99.90;;;;;;5022289;28;20531;-59
2023/06/27 06:40:29;;;;;;;5.13;2.03;;;16.30;99.90;;;;;;5019752;28;20170;-59
2023/06/27 06:42:54;;;;;;;5.63;2.43;;;16.30;99.90;;;;;;5018823;28;20173;-55
2023/06/27 06:45:20;;;;;;;6.03;2.20;;;16.30;99.90;;;;;;5018618;28;20173;-59
2023/06/27 06:47:45;;;;;;;5.37;2.27;;;16.30;99.90;;;;;;5021052;28;20185;-59
2023/06/27 06:50:11;;;;;;;5.20;2.00;;;16.30;99.90;;;;;;5022846;28;20188;-59
2023/06/27 06:52:36;;;;;;;4.50;1.70;;;16.40;99.90;;;;;;5025346;28;20180;-60
2023/06/27 06:55:02;;;;;;;5.27;1.57;;;16.40;99.90;;;;;;5026753;28;20197;-60
2023/06/27 06:57:31;;;;;;;7.23;2.17;;;16.40;99.90;;;;;;5058312;28;20201;-56
2023/06/27 06:59:56;;;;;;;4.40;1.67;;;16.50;99.90;;;;;;5024259;28;20350;-58
2023/06/27 07:02:22;;;;;;;3.80;1.40;;;16.50;99.90;;;;;;5023566;28;20181;-58
2023/06/27 07:04:47;;;;;;;5.20;1.87;;;16.50;99.90;;;;;;5039453;28;20177;-58
2023/06/27 07:07:13;;;;;;;6.73;1.43;;;16.60;99.90;;;;;;5019915;28;20181;-59
2023/06/27 07:09:38;;;;;;;4.73;1.77;;;16.60;99.90;;;;;;5055677;28;20593;-60
2023/06/27 07:12:04;;;;;;;6.47;1.90;;;16.70;99.90;;;;;;5020646;28;20555;-59
2023/06/27 07:14:29;;;;;;;4.30;1.60;;;16.70;99.90;;;;;;5021807;28;20428;-58
2023/06/27 07:16:55;;;;;;;4.83;1.87;;;16.80;99.90;;;;;;5022285;28;20391;-57
2023/06/27 07:19:21;;;;;;;3.73;1.83;;;16.80;99.90;;;;;;5023147;28;20456;-58
2023/06/27 07:21:47;;;;;;;4.93;1.80;;;16.80;99.90;;;;;;5058311;28;20173;-57
2023/06/27 07:24:12;;;;;;;8.43;2.00;;;16.90;99.90;;;;;;5026522;28;20239;-59
2023/06/27 07:26:38;;;;;;;8.87;1.77;;;16.80;99.90;;;;;;5027831;28;20264;-57
2023/06/27 07:29:04;;;;;;;9.47;2.10;;;16.80;99.90;;;;;;5025604;28;20272;-59
2023/06/27 07:31:29;;;;;;;5.87;2.33;;;16.80;99.90;;;;;;5024316;28;20423;-57
2023/06/27 07:33:55;;;;;;;4.10;1.90;;;16.70;99.90;;;;;;5023599;28;20205;-58
2023/06/27 07:36:21;;;;;;;7.23;2.27;;;16.70;99.90;;;;;;5022704;28;20413;-58
2023/06/27 07:38:46;;;;;;;3.33;1.70;;;16.70;99.90;;;;;;5023321;28;20248;-58
2023/06/27 07:41:12;;;;;;;3.57;2.10;;;16.70;99.90;;;;;;5023253;28;20647;-58
2023/06/27 07:43:37;;;;;;;5.37;2.10;;;16.70;99.90;;;;;;5022890;28;20336;-58
2023/06/27 07:46:03;;;;;;;7.00;1.90;;;16.70;99.90;;;;;;5022046;28;20174;-60
2023/06/27 07:48:29;;;;;;;7.97;2.20;;;16.70;99.90;;;;;;5020852;28;20181;-60
2023/06/27 07:50:55;;;;;;;5.07;2.87;;;16.70;99.90;;;;;;5022311;28;20232;-60
2023/06/27 07:53:21;;;;;;;11.00;3.03;;;16.60;99.90;;;;;;5021963;28;20431;-58
2023/06/27 07:55:46;;;;;;;6.97;2.00;;;16.60;99.90;;;;;;5021552;28;20446;-59
2023/06/27 07:58:12;;;;;;;4.60;1.77;;;16.60;99.90;;;;;;5023554;28;20181;-60
2023/06/27 08:00:38;;;;;;;8.50;2.60;;;16.60;99.90;;;;;;5025344;28;20162;-60
2023/06/27 08:03:04;;;;;;;8.70;1.87;;;16.60;99.90;;;;;;5025812;28;20166;-59
2023/06/27 08:05:34;;;;;;;5.87;2.07;;;16.60;99.90;;;;;;5025157;28;20202;-60
2023/06/27 08:08:01;;;;;;;7.10;1.93;;;16.50;99.90;;;;;;5022627;28;20429;-60
2023/06/27 08:10:28;;;;;;;4.20;1.30;;;16.50;99.90;;;;;;5021973;28;20166;-60
2023/06/27 08:12:54;;;;;;;2.43;1.40;;;16.50;99.90;;;;;;5021263;28;20553;-58
2023/06/27 08:15:20;;;;;;;5.03;1.60;;;16.30;99.90;;;;;;5022042;28;20190;-59
2023/06/27 08:17:45;;;;;;;3.50;1.67;;;16.20;99.90;;;;;;5022051;28;20517;-60
2023/06/27 08:20:11;;;;;;;3.43;1.53;;;16.20;99.90;;;;;;5019539;28;20828;-60
2023/06/27 08:22:37;;;;;;;3.07;1.73;;;16.30;99.90;;;;;;5020930;28;20188;-59
2023/06/27 08:25:04;;;;;;;6.13;1.90;;;16.30;99.90;;;;;;5019871;28;20194;-60
2023/06/27 08:27:30;;;;;;;3.93;2.00;;;16.30;99.90;;;;;;5018935;28;20482;-59
2023/06/27 08:29:55;;;;;;;3.93;1.80;;;16.40;99.90;;;;;;5019084;28;20225;-60
2023/06/27 08:32:21;;;;;;;3.57;1.70;;;16.50;99.90;;;;;;5019488;28;20274;-60
2023/06/27 08:34:46;;;;;;;4.57;2.00;;;16.50;99.90;;;;;;5023302;28;20378;-60
2023/06/27 08:37:13;;;;;;;5.93;2.57;;;16.60;99.90;;;;;;5021836;28;20354;-59
2023/06/27 08:39:39;;;;;;;7.50;2.27;;;16.60;99.90;;;;;;5020960;28;20163;-58
2023/06/27 08:42:05;;;;;;;5.33;1.70;;;16.60;99.90;;;;;;5020797;28;20725;-57
2023/06/27 08:44:31;;;;;;;5.10;1.43;;;16.60;99.90;;;;;;5022795;28;20166;-59
2023/06/27 08:47:02;;;;;;;4.23;1.77;;;16.60;99.90;;;;;;5023536;28;20170;-60
2023/06/27 08:49:32;;;;;;;3.30;1.27;;;16.60;99.90;;;;;;5022245;28;20327;-59
2023/06/27 08:52:01;;;;;;;5.70;1.63;;;16.60;99.90;;;;;;5020817;28;20216;-59
2023/06/27 08:54:32;;;;;;;3.00;1.40;;;16.60;99.90;;;;;;5020925;28;20555;-58
2023/06/27 08:57:00;;;;;;;6.30;1.57;;;16.60;99.90;;;;;;5028360;28;20166;-57
2023/06/27 08:59:31;;;;;;;6.30;1.90;;;16.60;99.90;;;;;;5027757;28;20181;-57
2023/06/27 09:01:59;;;;;;;5.10;1.60;;;16.60;99.90;;;;;;5027808;28;20171;-58
2023/06/27 09:04:25;;;;;;;3.93;1.50;;;16.60;99.90;;;;;;5030189;28;20193;-57
2023/06/27 09:06:51;;;;;;;6.37;2.00;;;16.60;99.90;;;;;;5025558;28;20460;-60
2023/06/27 09:09:17;;;;;;;4.67;1.60;;;16.60;99.90;;;;;;5021301;28;20170;-59
2023/06/27 09:11:43;;;;;;;4.23;2.00;;;16.70;99.90;;;;;;5020379;28;20166;-59
2023/06/27 09:14:09;;;;;;;4.17;1.60;;;16.80;99.90;;;;;;5021887;28;20711;-60
2023/06/27 09:16:34;;;;;;;4.73;1.57;;;16.80;99.90;;;;;;5024696;28;20308;-60
2023/06/27 09:19:00;;;;;;;5.93;2.10;;;16.90;99.90;;;;;;5024615;28;20622;-58
2023/06/27 09:21:26;;;;;;;4.70;1.70;;;16.90;99.90;;;;;;5023391;28;20193;-59
2023/06/27 09:23:53;;;;;;;4.57;2.20;;;17.00;99.90;;;;;;5023529;28;20162;-60
2023/06/27 09:26:19;;;;;;;5.47;1.97;;;17.10;99.90;;;;;;5024685;28;20166;-58
2023/06/27 09:28:52;;;;;;;3.20;1.40;;;17.20;99.90;;;;;;5031521;28;20711;-59
2023/06/27 09:31:19;;;;;;;4.17;1.50;;;17.20;99.90;;;;;;5034114;28;20272;-59
2023/06/27 09:33:45;;;;;;;4.60;1.40;;;17.20;99.90;;;;;;5031596;28;20169;-60
2023/06/27 09:36:11;;;;;;;5.33;1.60;;;17.30;99.90;;;;;;5031646;28;20208;-60
2023/06/27 09:38:37;;;;;;;3.67;1.83;;;17.40;99.90;;;;;;5032124;28;20760;-59
2023/06/27 09:41:08;;;;;;;6.73;1.23;;;17.40;99.90;;;;;;5033564;28;20246;-59
2023/06/27 09:43:38;;;;;;;3.47;1.20;;;17.50;99.90;;;;;;5033390;28;20172;-59
2023/06/27 09:46:04;;;;;;;3.17;1.20;;;17.50;99.90;;;;;;5052288;28;20710;-59
2023/06/27 09:48:30;;;;;;;3.70;1.50;;;17.60;99.90;;;;;;5068132;28;20474;-60
2023/06/27 09:51:00;;;;;;;4.87;1.20;;;17.60;99.90;;;;;;5034801;28;20181;-57
2023/06/27 09:53:28;;;;;;;5.83;1.40;;;17.60;99.90;;;;;;5034867;28;20200;-58
2023/06/27 09:55:58;;;;;;;7.90;1.43;;;17.60;99.90;;;;;;5033960;28;20208;-59
2023/06/27 09:58:28;;;;;;;5.00;1.40;;;17.60;99.90;;;;;;5051087;28;20169;-60
2023/06/27 10:01:01;;;;;;;2.93;1.20;;;17.70;99.90;;;;;;5031762;28;20239;-60
2023/06/27 10:03:27;;;;;;;3.23;1.67;;;17.80;99.90;;;;;;5033347;28;20165;-59
2023/06/27 10:05:53;;;;;;;4.77;1.57;;;17.80;99.90;;;;;;5031456;28;20276;-59
2023/06/27 10:08:19;;;;;;;2.70;1.33;;;17.90;99.90;;;;;;5050301;28;20162;-60
2023/06/27 10:10:45;;;;;;;4.50;1.87;;;18.00;99.90;;;;;;5033854;28;20227;-60
2023/06/27 10:13:11;;;;;;;4.87;1.27;;;18.00;99.90;;;;;;5051325;28;20423;-59
2023/06/27 10:15:37;;;;;;;6.20;2.37;;;18.10;99.90;;;;;;5035236;28;20211;-59
2023/06/27 10:18:03;;;;;;;5.53;2.00;;;18.20;99.90;;;;;;5050641;28;20363;-60
2023/06/27 10:20:29;;;;;;;5.33;2.23;;;18.20;99.90;;;;;;5034649;28;20793;-59
2023/06/27 10:22:57;;;;;;;4.40;3.07;;;18.20;99.90;;;;;;5035406;28;20174;-60
2023/06/27 10:25:23;;;;;;;4.93;3.17;;;18.30;99.90;;;;;;5052833;28;20481;-59
2023/06/27 10:27:49;;;;;;;3.90;3.30;;;18.40;99.90;;;;;;5052160;28;20168;-60
2023/06/27 10:30:20;;;;;;;4.23;3.40;;;18.30;99.90;;;;;;5051974;28;20292;-60
2023/06/27 10:32:47;;;;;;;3.90;2.50;;;18.40;99.90;;;;;;5051650;28;20761;-60
2023/06/27 10:35:26;;;;;;;6.00;1.80;;;18.50;99.90;;;;;;5034941;28;20207;-60
2023/06/27 10:38:15;;;;;;;4.73;1.20;;;18.60;99.90;;;;;;5034277;28;20783;-59
2023/06/27 10:41:09;;;;;;;6.83;1.40;;;18.60;99.90;;;;;;5052107;28;20444;-60
2023/06/27 10:43:52;;;;;;;5.60;1.03;;;18.70;99.90;;;;;;5034891;28;20269;-61
2023/06/27 10:46:29;;;;;;;2.67;1.10;;;18.80;99.90;;;;;;5034681;28;20173;-60
2023/06/27 10:49:09;;;;;;;3.13;1.23;;;18.80;99.90;;;;;;5033166;28;20255;-57
2023/06/27 10:51:43;;;;;;;5.77;1.20;;;18.90;99.90;;;;;;5032992;28;20265;-60
2023/06/27 10:54:09;;;;;;;2.57;1.03;;;18.80;99.90;;;;;;5032157;28;20173;-60
2023/06/27 10:57:00;;;;;;;3.23;1.07;;;18.80;99.90;;;;;;5031629;28;20239;-61
2023/06/27 10:59:26;;;;;;;3.47;1.23;;;18.80;99.90;;;;;;5026866;28;20776;-60
2023/06/27 11:02:04;;;;;;;2.60;1.00;;;18.80;99.90;;;;;;5027282;28;20176;-58
2023/06/27 11:04:48;;;;;;;4.97;1.00;;;18.90;99.90;;;;;;5030058;28;20162;-60
2023/06/27 11:07:18;;;;;;;2.17;1.10;;;18.90;99.90;;;;;;5048370;28;20193;-59
2023/06/27 11:09:55;;;;;;;7.00;1.67;;;19.00;99.90;;;;;;5049089;28;20169;-60
2023/06/27 11:12:21;;;;;;;4.80;1.37;;;19.00;99.90;;;;;;5029965;28;20261;-58
2023/06/27 11:14:48;;;;;;;2.13;1.00;;;19.10;99.90;;;;;;5025112;28;20198;-60
2023/06/27 11:17:17;;;;;;;4.97;1.47;;;19.20;99.90;;;;;;5027984;28;20174;-57
2023/06/27 11:19:43;;;;;;;4.20;1.67;;;19.20;99.90;;;;;;5029128;28;20784;-59
2023/06/27 11:22:10;;;;;;;5.20;1.40;;;19.30;99.90;;;;;;5028366;28;20201;-59
2023/06/27 11:24:36;;;;;;;2.90;1.00;;;19.30;99.90;;;;;;5031150;28;20247;-58
2023/06/27 11:27:05;;;;;;;1.23;0.90;;;19.30;99.90;;;;;;5046389;28;20222;-59
2023/06/27 11:29:32;;;;;;;3.20;0.97;;;19.20;99.90;;;;;;5046105;28;20724;-57
2023/06/27 11:31:58;;;;;;;3.90;1.10;;;19.30;99.90;;;;;;5046485;28;20162;-58
2023/06/27 11:34:24;;;;;;;3.40;1.23;;;19.30;99.90;;;;;;5027503;28;20169;-59
2023/06/27 11:36:50;;;;;;;2.77;1.23;;;19.30;99.90;;;;;;5029870;28;20212;-57
2023/06/27 11:39:16;;;;;;;3.13;1.40;;;19.40;99.90;;;;;;5050452;28;20158;-59
2023/06/27 11:41:43;;;;;;;3.27;1.40;;;19.40;99.90;;;;;;5048470;28;20192;-56
2023/06/27 11:44:16;;;;;;;3.07;1.37;;;19.50;99.90;;;;;;5029753;28;20736;-56
2023/06/27 11:46:54;;;;;;;3.17;1.23;;;19.70;99.90;;;;;;5033393;28;20197;-58
2023/06/27 11:49:25;;;;;;;3.47;0.97;;;19.70;99.90;;;;;;5035031;28;20227;-57
2023/06/27 11:51:56;;;;;;;8.53;1.70;;;19.70;99.90;;;;;;5036545;28;20170;-57
2023/06/27 11:54:23;;;;;;;3.00;1.07;;;19.70;99.90;;;;;;5035397;28;20268;-52
2023/06/27 11:56:50;;;;;;;3.30;0.90;;;19.60;99.90;;;;;;5033689;28;20260;-56
2023/06/27 11:59:29;;;;;;;3.13;1.07;;;19.40;99.90;;;;;;5034797;28;20258;-57
2023/06/27 12:01:58;;;;;;;3.90;1.20;;;19.30;99.90;;;;;;5031690;28;20227;-59
2023/06/27 12:04:23;;;;;;;2.90;1.20;;;19.30;99.90;;;;;;5031454;28;20169;-59
2023/06/27 12:06:51;;;;;;;4.37;1.13;;;19.20;99.90;;;;;;5031470;28;20174;-60
2023/06/27 12:09:19;;;;;;;7.17;1.10;;;19.30;99.90;;;;;;5048932;28;20212;-62
2023/06/27 12:11:56;;;;;;;2.67;1.20;;;19.50;99.90;;;;;;5033939;28;20821;-59
2023/06/27 12:14:22;;;;;;;3.70;1.37;;;19.70;99.90;;;;;;5033980;28;20165;-59
2023/06/27 12:16:48;;;;;;;5.17;1.50;;;19.90;99.90;;;;;;5035061;28;20220;-58
2023/06/27 12:19:17;;;;;;;5.57;1.77;;;20.00;99.90;;;;;;5053476;28;20437;-59
2023/06/27 12:21:44;;;;;;;3.20;1.40;;;20.10;99.90;;;;;;5037031;28;20162;-59
2023/06/27 12:24:09;;;;;;;4.90;1.50;;;20.30;99.90;;;;;;5036355;28;20231;-58
2023/06/27 12:26:35;;;;;;;2.77;1.43;;;20.40;99.90;;;;;;5035837;28;20177;-59
2023/06/27 12:29:03;;;;;;;3.27;1.10;;;20.40;99.90;;;;;;5052302;28;20883;-59
2023/06/27 12:31:29;;;;;;;2.03;0.90;;;20.20;99.90;;;;;;5036068;28;20193;-59
2023/06/27 12:33:55;;;;;;;3.40;0.87;;;19.80;99.90;;;;;;5052920;28;20213;-60
2023/06/27 12:36:22;;;;;;;1.83;0.70;;;19.50;99.90;;;;;;5034955;28;20504;-59
2023/06/27 12:38:51;;;;;;;1.57;0.80;;;19.30;99.90;;;;;;5035953;28;20173;-57
2023/06/27 12:41:18;;;;;;;1.00;0.80;;;19.30;99.90;;;;;;5055729;28;20178;-59
2023/06/27 12:43:45;;;;;;;4.47;0.93;;;19.20;99.90;;;;;;5052104;28;20162;-59
2023/06/27 12:46:11;;;;;;;2.80;0.80;;;19.10;99.90;;;;;;5054959;28;20165;-57